Time;durP1;ratioP1;P1;durP2;ratioP2;P2;SDS_P1;SDS_P2;PMS_P1;PMS_P2;Temp;Humidity;BMP_temperature;BMP_pressure;BME280_temperature;BME280_humidity;BME280_pressure;Samples;Min_cycle;Max_cycle;Signal;HPM_P1;HPM_P2
2022/06/21 00:00:15;;;;;;;0.20;0.20;;;11.80;99.90;;;;;;5053125;28;20297;-86
2022/06/21 00:02:41;;;;;;;0.20;0.20;;;11.80;99.90;;;;;;5052266;28;20452;-86
2022/06/21 00:05:16;;;;;;;0.20;0.20;;;11.80;99.90;;;;;;5065685;28;20924;-85
2022/06/21 00:07:41;;;;;;;0.20;0.20;;;11.70;99.90;;;;;;5061468;28;20443;-86
2022/06/21 00:10:14;;;;;;;0.20;0.20;;;11.70;99.90;;;;;;5063826;28;20452;-85
2022/06/21 00:12:40;;;;;;;0.10;0.10;;;11.70;99.90;;;;;;5040766;28;20190;-85
2022/06/21 00:15:06;;;;;;;0.20;0.20;;;11.60;99.90;;;;;;5057800;28;20505;-85
2022/06/21 00:17:31;;;;;;;0.20;0.20;;;11.60;99.90;;;;;;5065295;28;20722;-85
2022/06/21 00:19:56;;;;;;;0.20;0.20;;;11.60;99.90;;;;;;5055926;28;20500;-85
2022/06/21 00:22:22;;;;;;;0.20;0.20;;;11.60;99.90;;;;;;5054775;28;20233;-85
2022/06/21 00:24:47;;;;;;;0.10;0.10;;;11.50;99.90;;;;;;5060586;28;20941;-85
2022/06/21 00:27:16;;;;;;;0.17;0.17;;;11.60;99.90;;;;;;5046118;28;20202;-85
2022/06/21 00:29:43;;;;;;;0.20;0.20;;;11.50;99.90;;;;;;5050662;28;20181;-86
2022/06/21 00:32:14;;;;;;;0.20;0.20;;;11.50;99.90;;;;;;5036568;28;20444;-85
2022/06/21 00:34:41;;;;;;;0.10;0.10;;;11.50;99.90;;;;;;5039573;28;21122;-85
2022/06/21 00:37:14;;;;;;;0.20;0.20;;;11.60;99.90;;;;;;5050941;28;20450;-85
2022/06/21 00:39:39;;;;;;;0.20;0.20;;;11.60;99.90;;;;;;5054576;28;20523;-85
2022/06/21 00:42:29;;;;;;;0.20;0.20;;;11.60;99.90;;;;;;5060480;28;20874;-85
2022/06/21 00:45:01;;;;;;;0.10;0.10;;;11.50;99.90;;;;;;5051086;28;20226;-85
2022/06/21 00:47:48;;;;;;;0.17;0.17;;;11.50;99.90;;;;;;5047057;28;20441;-85
2022/06/21 00:50:28;;;;;;;0.10;0.10;;;11.60;99.90;;;;;;5048930;28;20448;-85
2022/06/21 00:53:04;;;;;;;0.20;0.20;;;11.50;99.90;;;;;;5058614;28;20433;-85
2022/06/21 00:55:49;;;;;;;0.10;0.10;;;11.40;99.90;;;;;;5053451;28;21014;-85
2022/06/21 00:58:18;;;;;;;0.20;0.20;;;11.40;99.90;;;;;;5039975;28;20481;-86
2022/06/21 01:01:05;;;;;;;0.20;0.20;;;11.50;99.90;;;;;;5058161;28;20492;-85
2022/06/21 01:03:40;;;;;;;0.10;0.10;;;11.50;99.90;;;;;;5051688;28;20551;-85
2022/06/21 01:06:15;;;;;;;0.17;0.17;;;11.50;99.90;;;;;;5056777;28;20517;-87
2022/06/21 01:08:44;;;;;;;0.20;0.20;;;11.50;99.90;;;;;;5052219;28;20978;-85
2022/06/21 01:11:17;;;;;;;0.20;0.20;;;11.40;99.90;;;;;;5057957;28;20855;-86
2022/06/21 01:13:46;;;;;;;0.13;0.13;;;11.50;99.90;;;;;;5055824;28;20442;-85
2022/06/21 01:16:13;;;;;;;0.20;0.20;;;11.40;99.90;;;;;;5050720;28;20548;-85
2022/06/21 01:18:40;;;;;;;0.10;0.10;;;11.40;99.90;;;;;;5055907;28;20446;-85
2022/06/21 01:21:08;;;;;;;0.20;0.20;;;11.30;99.90;;;;;;5055978;28;20537;-85
2022/06/21 01:24:06;;;;;;;0.10;0.10;;;11.20;99.90;;;;;;5046044;28;20446;-85
2022/06/21 01:26:47;;;;;;;0.20;0.20;;;11.30;99.90;;;;;;5051696;28;20485;-85
2022/06/21 01:29:17;;;;;;;0.20;0.20;;;11.30;99.90;;;;;;5045544;28;20464;-85
2022/06/21 01:31:43;;;;;;;0.20;0.20;;;11.30;99.90;;;;;;5059349;28;20940;-85
2022/06/21 01:34:18;;;;;;;0.20;0.20;;;11.30;99.90;;;;;;5055334;28;20437;-85
2022/06/21 01:36:46;;;;;;;0.20;0.20;;;11.30;99.90;;;;;;5048933;28;20437;-85
2022/06/21 01:39:21;;;;;;;0.20;0.20;;;11.40;99.90;;;;;;5040761;28;20466;-84
2022/06/21 01:41:53;;;;;;;0.20;0.20;;;11.40;99.90;;;;;;5066319;28;21036;-85
2022/06/21 01:44:24;;;;;;;0.20;0.20;;;11.20;99.90;;;;;;5053897;28;20953;-84
2022/06/21 01:46:49;;;;;;;0.20;0.20;;;11.20;99.90;;;;;;5045234;28;20513;-86
2022/06/21 01:49:21;;;;;;;0.20;0.20;;;11.20;99.90;;;;;;5048739;28;20846;-84
2022/06/21 01:51:58;;;;;;;0.20;0.20;;;11.20;99.90;;;;;;5057609;28;20179;-84
2022/06/21 01:54:28;;;;;;;0.10;0.10;;;11.20;99.90;;;;;;5051747;28;20943;-85
2022/06/21 01:56:54;;;;;;;0.20;0.20;;;11.20;99.90;;;;;;5044038;28;20471;-83
2022/06/21 01:59:26;;;;;;;0.20;0.20;;;11.30;99.90;;;;;;5045341;28;20457;-84
2022/06/21 02:01:58;;;;;;;0.20;0.20;;;11.20;99.90;;;;;;5030972;28;20474;-86
2022/06/21 02:04:27;;;;;;;0.20;0.20;;;11.30;99.90;;;;;;5045115;28;20884;-84
2022/06/21 02:06:58;;;;;;;0.20;0.20;;;11.30;99.90;;;;;;5039096;28;20448;-83
2022/06/21 02:09:27;;;;;;;0.20;0.20;;;11.20;99.90;;;;;;5037134;28;20436;-85
2022/06/21 02:12:03;;;;;;;0.20;0.20;;;11.20;99.90;;;;;;5043049;28;20469;-85
2022/06/21 02:14:31;;;;;;;0.20;0.20;;;11.20;99.90;;;;;;5042773;28;20444;-84
2022/06/21 02:17:04;;;;;;;0.20;0.20;;;11.20;99.90;;;;;;5036745;28;20537;-84
2022/06/21 02:19:46;;;;;;;0.20;0.20;;;11.10;99.90;;;;;;5054602;28;20452;-85
2022/06/21 02:22:24;;;;;;;0.20;0.20;;;11.10;99.90;;;;;;5035716;28;20449;-85
2022/06/21 02:24:51;;;;;;;0.20;0.20;;;11.10;99.90;;;;;;5034027;28;20519;-85
2022/06/21 02:27:21;;;;;;;0.20;0.20;;;11.10;99.90;;;;;;5046780;28;20952;-84
2022/06/21 02:29:53;;;;;;;0.20;0.20;;;11.10;99.90;;;;;;5052311;28;20443;-85
2022/06/21 02:32:28;;;;;;;0.20;0.20;;;11.10;99.90;;;;;;5044814;28;20477;-85
2022/06/21 02:34:59;;;;;;;0.20;0.20;;;11.10;99.90;;;;;;5047705;28;20432;-84
2022/06/21 02:37:26;;;;;;;0.20;0.20;;;11.10;99.90;;;;;;5049194;28;20445;-84
2022/06/21 02:39:54;;;;;;;0.20;0.20;;;11.10;99.90;;;;;;5040643;28;20442;-84
2022/06/21 02:42:26;;;;;;;0.20;0.20;;;11.10;99.90;;;;;;5052360;28;20450;-84
2022/06/21 02:44:57;;;;;;;0.20;0.20;;;11.10;99.90;;;;;;5060338;28;20464;-85
2022/06/21 02:47:28;;;;;;;0.20;0.20;;;11.10;99.90;;;;;;5060488;28;20447;-84
2022/06/21 02:50:03;;;;;;;0.20;0.20;;;11.10;99.90;;;;;;5067437;28;20482;-84
2022/06/21 02:52:37;;;;;;;0.20;0.20;;;11.10;99.90;;;;;;5048660;28;20444;-84
2022/06/21 02:55:20;;;;;;;0.20;0.20;;;11.10;99.90;;;;;;5041977;28;20941;-84
2022/06/21 02:57:55;;;;;;;0.20;0.20;;;11.10;99.90;;;;;;5029599;28;20536;-84
2022/06/21 03:00:20;;;;;;;0.20;0.20;;;11.10;99.90;;;;;;5046715;28;20476;-84
2022/06/21 03:02:47;;;;;;;0.20;0.20;;;11.10;99.90;;;;;;5035774;28;20495;-85
2022/06/21 03:05:25;;;;;;;0.20;0.20;;;11.10;99.90;;;;;;5047578;28;20210;-84
2022/06/21 03:07:54;;;;;;;0.20;0.20;;;11.10;99.90;;;;;;5033172;28;20871;-84
2022/06/21 03:10:24;;;;;;;0.20;0.20;;;11.10;99.90;;;;;;5049599;28;20437;-84
2022/06/21 03:13:03;;;;;;;0.20;0.20;;;11.20;99.90;;;;;;5049463;28;20574;-85
2022/06/21 03:15:29;;;;;;;0.20;0.20;;;11.10;99.90;;;;;;5070842;28;20435;-85
2022/06/21 03:18:02;;;;;;;0.20;0.20;;;11.20;99.90;;;;;;5063139;28;20496;-84
2022/06/21 03:20:30;;;;;;;0.20;0.20;;;11.20;99.90;;;;;;5059365;28;20529;-84
2022/06/21 03:22:56;;;;;;;0.20;0.20;;;11.10;99.90;;;;;;5050476;28;20532;-85
2022/06/21 03:25:28;;;;;;;0.20;0.20;;;11.20;99.90;;;;;;5055134;28;20561;-86
2022/06/21 03:27:57;;;;;;;0.20;0.20;;;11.20;99.90;;;;;;5047094;28;20478;-85
2022/06/21 03:30:27;;;;;;;0.20;0.20;;;11.20;99.90;;;;;;5032727;28;20810;-85
2022/06/21 03:32:55;;;;;;;0.20;0.20;;;11.30;99.90;;;;;;5051452;28;20501;-85
2022/06/21 03:35:22;;;;;;;0.20;0.20;;;11.40;99.90;;;;;;5035313;28;20557;-85
2022/06/21 03:37:48;;;;;;;0.20;0.20;;;11.40;99.90;;;;;;5038404;28;20472;-85
2022/06/21 03:43:47;;;;;;;0.20;0.20;;;11.30;99.90;;;;;;5041354;28;20207;-85
2022/06/21 03:46:31;;;;;;;0.20;0.20;;;11.30;99.90;;;;;;5041488;28;20488;-85
2022/06/21 03:49:04;;;;;;;0.20;0.20;;;11.30;99.90;;;;;;5067567;28;22309;-85
2022/06/21 03:51:36;;;;;;;0.20;0.20;;;11.30;99.90;;;;;;5048449;28;20917;-85
2022/06/21 03:54:42;;;;;;;0.20;0.20;;;11.40;99.90;;;;;;5051902;28;20438;-84
2022/06/21 03:57:26;;;;;;;0.20;0.20;;;11.40;99.90;;;;;;5039964;28;20487;-84
2022/06/21 04:00:02;;;;;;;0.20;0.20;;;11.30;99.90;;;;;;5045166;28;20439;-84
2022/06/21 04:02:37;;;;;;;0.10;0.10;;;11.30;99.90;;;;;;5045158;28;20444;-85
2022/06/21 04:05:28;;;;;;;0.20;0.20;;;11.40;99.90;;;;;;5048549;28;20825;-85
2022/06/21 04:08:29;;;;;;;0.20;0.20;;;11.50;99.90;;;;;;5033616;28;20503;-85
2022/06/21 04:11:28;;;;;;;0.20;0.20;;;11.40;99.90;;;;;;5052287;28;20447;-85
2022/06/21 04:14:03;;;;;;;0.20;0.20;;;11.40;99.90;;;;;;5044347;28;20445;-85
2022/06/21 04:16:38;;;;;;;0.10;0.10;;;11.50;99.90;;;;;;5045484;28;20440;-85
2022/06/21 04:19:08;;;;;;;0.17;0.17;;;11.60;99.90;;;;;;5043549;28;20498;-85
2022/06/21 04:21:54;;;;;;;0.20;0.20;;;11.70;99.90;;;;;;5047225;28;20457;-85
2022/06/21 04:24:36;;;;;;;0.20;0.20;;;11.60;99.90;;;;;;5048911;28;20806;-85
2022/06/21 04:27:09;;;;;;;0.20;0.20;;;11.70;99.90;;;;;;5040325;28;20468;-85
2022/06/21 04:29:49;;;;;;;0.17;0.17;;;11.70;99.90;;;;;;5047820;28;20891;-85
2022/06/21 04:32:30;;;;;;;0.20;0.20;;;11.70;99.90;;;;;;5045360;28;20455;-86
2022/06/21 04:35:19;;;;;;;0.20;0.20;;;11.80;99.90;;;;;;5038775;28;20452;-85
2022/06/21 04:38:11;;;;;;;0.20;0.20;;;11.80;99.90;;;;;;5035032;28;20455;-85
2022/06/21 04:41:09;;;;;;;0.10;0.10;;;11.90;99.90;;;;;;5028319;28;21441;-85
2022/06/21 04:43:43;;;;;;;0.20;0.20;;;12.00;99.90;;;;;;5040985;28;20453;-85
2022/06/21 04:46:30;;;;;;;0.20;0.20;;;12.00;99.90;;;;;;5048209;28;20479;-85
2022/06/21 04:49:16;;;;;;;0.10;0.10;;;12.10;99.90;;;;;;5042899;28;20434;-85
2022/06/21 04:51:49;;;;;;;0.10;0.10;;;12.10;99.90;;;;;;5052486;28;20455;-84
2022/06/21 04:54:24;;;;;;;0.10;0.10;;;12.20;99.90;;;;;;5082306;28;20476;-84
2022/06/21 04:56:58;;;;;;;0.20;0.20;;;12.20;99.90;;;;;;5042556;28;20460;-84
2022/06/21 04:59:45;;;;;;;0.17;0.17;;;12.20;99.90;;;;;;5050473;28;20440;-85
2022/06/21 05:02:20;;;;;;;0.10;0.10;;;12.30;99.90;;;;;;5045703;28;20712;-86
2022/06/21 05:04:50;;;;;;;0.10;0.10;;;12.40;99.90;;;;;;5030054;28;20446;-85
2022/06/21 05:07:19;;;;;;;0.10;0.10;;;12.40;99.90;;;;;;5044182;28;20453;-83
2022/06/21 05:09:46;;;;;;;0.10;0.10;;;12.50;99.90;;;;;;5040697;28;20593;-83
2022/06/21 05:12:28;;;;;;;0.20;0.20;;;12.70;99.90;;;;;;5049433;28;20445;-83
2022/06/21 05:15:00;;;;;;;0.10;0.10;;;12.70;99.90;;;;;;5046754;28;20553;-83
2022/06/21 05:17:27;;;;;;;0.10;0.10;;;12.90;99.90;;;;;;5048827;28;21099;-82
2022/06/21 05:20:01;;;;;;;0.10;0.10;;;12.90;99.90;;;;;;5053014;28;20526;-82
2022/06/21 05:22:35;;;;;;;0.10;0.10;;;12.90;99.90;;;;;;5045629;28;20437;-82
2022/06/21 05:25:05;;;;;;;0.20;0.20;;;12.90;99.90;;;;;;5043601;28;20928;-82
2022/06/21 05:28:07;;;;;;;0.10;0.10;;;13.10;99.90;;;;;;5044013;28;20434;-82
2022/06/21 05:30:55;;;;;;;0.10;0.10;;;13.20;99.90;;;;;;5047899;28;20498;-83
2022/06/21 05:33:46;;;;;;;0.10;0.10;;;13.30;99.90;;;;;;5048600;28;21904;-82
2022/06/21 05:36:15;;;;;;;0.10;0.10;;;13.30;99.90;;;;;;5032620;28;20545;-82
2022/06/21 05:38:57;;;;;;;0.10;0.10;;;13.40;99.90;;;;;;5040391;28;20917;-85
2022/06/21 05:41:32;;;;;;;0.13;0.13;;;13.40;99.90;;;;;;5052577;28;20449;-82
2022/06/21 05:44:08;;;;;;;0.10;0.10;;;13.40;99.90;;;;;;5041954;28;20546;-82
2022/06/21 05:46:37;;;;;;;0.10;0.10;;;13.50;99.90;;;;;;5035312;28;20487;-82
2022/06/21 05:49:08;;;;;;;0.10;0.10;;;13.70;99.90;;;;;;5046950;28;20958;-82
2022/06/21 05:51:34;;;;;;;0.10;0.10;;;13.80;99.90;;;;;;5049581;28;20853;-81
2022/06/21 05:54:12;;;;;;;0.10;0.10;;;14.00;99.90;;;;;;5068407;28;20808;-83
2022/06/21 05:56:39;;;;;;;0.10;0.10;;;14.00;99.90;;;;;;5055718;28;20514;-84
2022/06/21 05:59:11;;;;;;;0.10;0.10;;;14.20;99.90;;;;;;5051035;28;20453;-83
2022/06/21 06:01:51;;;;;;;0.10;0.10;;;14.10;99.90;;;;;;5039377;28;20472;-83
2022/06/21 06:04:32;;;;;;;0.10;0.10;;;14.20;99.90;;;;;;5039774;28;20480;-84
2022/06/21 06:06:59;;;;;;;0.10;0.10;;;14.20;99.90;;;;;;5039027;28;20543;-84
2022/06/21 06:09:48;;;;;;;0.10;0.10;;;14.30;99.90;;;;;;5046200;28;20952;-84
2022/06/21 06:12:28;;;;;;;0.10;0.10;;;14.30;99.90;;;;;;5037689;28;20450;-84
2022/06/21 06:15:02;;;;;;;0.10;0.10;;;14.20;99.90;;;;;;5030020;28;20453;-84
2022/06/21 06:17:53;;;;;;;0.10;0.10;;;14.40;99.90;;;;;;5056721;28;21059;-85
2022/06/21 06:20:26;;;;;;;0.10;0.10;;;14.40;99.90;;;;;;5020010;28;20901;-84
2022/06/21 06:23:14;;;;;;;0.10;0.10;;;14.30;99.90;;;;;;5034261;28;20453;-84
2022/06/21 06:25:50;;;;;;;0.10;0.10;;;14.40;99.90;;;;;;5028331;28;20487;-83
2022/06/21 06:28:25;;;;;;;0.10;0.10;;;14.50;99.90;;;;;;5025810;28;20960;-84
2022/06/21 06:31:06;;;;;;;0.10;0.10;;;14.50;99.90;;;;;;5035677;28;20937;-83
2022/06/21 06:33:38;;;;;;;0.10;0.10;;;14.70;99.90;;;;;;5031965;28;20465;-84
2022/06/21 06:36:10;;;;;;;0.10;0.10;;;14.80;99.90;;;;;;5036891;28;20448;-83
2022/06/21 06:38:37;;;;;;;0.10;0.10;;;14.60;99.90;;;;;;5034035;28;20441;-84
2022/06/21 06:41:19;;;;;;;0.10;0.10;;;14.60;99.90;;;;;;5045249;28;20441;-83
2022/06/21 06:43:53;;;;;;;0.10;0.10;;;14.80;99.90;;;;;;5039414;28;20438;-82
2022/06/21 06:46:36;;;;;;;0.10;0.10;;;15.10;99.90;;;;;;5035608;28;20516;-83
2022/06/21 06:49:22;;;;;;;0.10;0.10;;;15.20;99.90;;;;;;5045826;28;20437;-83
2022/06/21 06:52:00;;;;;;;0.10;0.10;;;15.30;99.90;;;;;;5048250;28;20433;-80
2022/06/21 06:54:47;;;;;;;0.10;0.10;;;15.60;99.90;;;;;;5053307;28;20806;-81
2022/06/21 06:57:35;;;;;;;0.10;0.10;;;15.70;99.90;;;;;;5034965;28;20819;-80
2022/06/21 07:00:06;;;;;;;0.10;0.10;;;15.80;99.90;;;;;;5045407;28;20471;-81
2022/06/21 07:02:37;;;;;;;0.10;0.10;;;15.80;99.90;;;;;;5042193;28;20501;-81
2022/06/21 07:05:18;;;;;;;0.10;0.10;;;16.00;99.90;;;;;;5037544;28;20484;-81
2022/06/21 07:07:51;;;;;;;0.10;0.10;;;16.10;99.90;;;;;;5038351;28;20441;-81
2022/06/21 07:10:23;;;;;;;0.10;0.10;;;15.70;99.90;;;;;;5042216;28;20433;-82
2022/06/21 07:12:50;;;;;;;0.10;0.10;;;15.70;99.90;;;;;;5047221;28;20445;-82
2022/06/21 07:15:16;;;;;;;0.10;0.10;;;15.70;99.90;;;;;;5052758;28;20441;-82
2022/06/21 07:17:54;;;;;;;0.10;0.10;;;15.90;99.90;;;;;;5052336;28;20447;-83
2022/06/21 07:20:26;;;;;;;0.10;0.10;;;16.20;99.90;;;;;;5048263;28;20596;-82
2022/06/21 07:22:55;;;;;;;0.10;0.10;;;16.20;99.90;;;;;;5042907;28;20504;-83
2022/06/21 07:25:37;;;;;;;0.10;0.10;;;16.30;99.90;;;;;;5055227;28;20488;-81
2022/06/21 07:28:17;;;;;;;0.10;0.10;;;16.70;99.90;;;;;;5059388;28;20436;-82
2022/06/21 07:30:47;;;;;;;0.10;0.10;;;16.20;99.90;;;;;;5051693;28;20435;-81
2022/06/21 07:33:19;;;;;;;0.10;0.10;;;15.80;99.90;;;;;;5048254;28;21151;-81
2022/06/21 07:35:50;;;;;;;0.10;0.10;;;16.20;99.90;;;;;;5048864;28;20448;-81
2022/06/21 07:38:24;;;;;;;0.10;0.10;;;16.70;99.90;;;;;;5041011;28;20449;-81
2022/06/21 07:40:55;;;;;;;0.10;0.10;;;16.90;99.90;;;;;;5042291;28;21038;-81
2022/06/21 07:43:25;;;;;;;0.10;0.10;;;16.70;99.90;;;;;;5058063;28;20441;-81
2022/06/21 07:45:56;;;;;;;0.10;0.10;;;16.70;99.90;;;;;;5052066;28;20516;-81
2022/06/21 07:48:37;;;;;;;0.10;0.10;;;16.90;99.90;;;;;;5067550;28;20451;-81
2022/06/21 07:51:17;;;;;;;0.10;0.10;;;17.20;99.90;;;;;;5070695;28;20535;-81
2022/06/21 07:53:45;;;;;;;0.10;0.10;;;17.00;99.90;;;;;;5043755;28;20450;-82
2022/06/21 07:56:22;;;;;;;0.10;0.10;;;16.80;99.90;;;;;;5064348;28;20540;-81
2022/06/21 07:58:52;;;;;;;0.10;0.10;;;17.10;99.90;;;;;;5061645;28;20581;-82
2022/06/21 08:07:29;;;;;;;0.10;0.10;;;17.20;99.90;;;;;;5041429;28;20466;-82
2022/06/21 08:10:02;;;;;;;0.10;0.10;;;17.20;99.90;;;;;;5064734;28;20436;-82
2022/06/21 08:12:28;;;;;;;0.10;0.10;;;17.50;99.90;;;;;;5045520;28;20437;-82
2022/06/21 08:14:53;;;;;;;0.10;0.10;;;17.40;99.90;;;;;;5056400;28;20439;-82
2022/06/21 08:17:33;;;;;;;0.10;0.10;;;17.90;99.90;;;;;;5068002;28;20190;-81
2022/06/21 08:20:22;;;;;;;0.10;0.10;;;17.80;99.90;;;;;;5038393;28;20454;-81
2022/06/21 08:22:56;;;;;;;0.10;0.10;;;18.00;99.90;;;;;;5042345;28;20442;-81
2022/06/21 08:25:48;;;;;;;0.10;0.10;;;17.90;99.90;;;;;;5052222;28;20522;-81
2022/06/21 08:28:25;;;;;;;0.10;0.10;;;18.20;99.90;;;;;;5041375;28;20435;-81
2022/06/21 08:30:56;;;;;;;0.10;0.00;;;17.80;99.90;;;;;;5051658;28;20440;-81
2022/06/21 08:33:46;;;;;;;0.10;0.10;;;18.40;99.90;;;;;;5052377;28;20429;-81
2022/06/21 08:36:20;;;;;;;0.10;0.10;;;18.60;99.90;;;;;;5049294;28;21003;-81
2022/06/21 08:38:58;;;;;;;0.10;0.10;;;18.70;99.90;;;;;;5041646;28;20436;-81
2022/06/21 08:41:57;;;;;;;0.10;0.10;;;19.00;99.90;;;;;;5045069;28;20470;-81
2022/06/21 08:44:25;;;;;;;0.10;0.10;;;18.70;99.90;;;;;;5050253;28;20523;-81
2022/06/21 08:47:11;;;;;;;0.10;0.10;;;18.80;99.90;;;;;;5051436;28;20484;-81
2022/06/21 08:50:11;;;;;;;0.10;0.10;;;18.60;99.90;;;;;;5050249;28;20449;-82
2022/06/21 08:52:55;;;;;;;0.10;0.10;;;19.00;99.90;;;;;;5041284;28;20945;-81
2022/06/21 08:55:36;;;;;;;0.10;0.10;;;19.40;99.90;;;;;;5048442;28;20451;-82
2022/06/21 08:58:21;;;;;;;0.10;0.10;;;19.70;99.90;;;;;;5044168;28;20813;-82
2022/06/21 09:01:13;;;;;;;0.10;0.00;;;19.80;99.90;;;;;;5049217;28;20476;-81
2022/06/21 09:03:59;;;;;;;0.10;0.10;;;19.70;99.90;;;;;;5034453;28;20450;-81
2022/06/21 09:06:42;;;;;;;0.10;0.00;;;19.70;99.90;;;;;;5037851;28;20485;-80
2022/06/21 09:09:26;;;;;;;0.10;0.10;;;19.70;99.90;;;;;;5040027;28;20448;-81
2022/06/21 09:12:20;;;;;;;0.10;0.10;;;19.80;99.90;;;;;;5045217;28;20789;-81
2022/06/21 09:14:58;;;;;;;0.10;0.10;;;19.90;99.90;;;;;;5031664;28;20442;-80
2022/06/21 09:17:38;;;;;;;0.10;0.10;;;20.00;99.90;;;;;;5050736;28;20503;-81
2022/06/21 09:20:20;;;;;;;0.10;0.10;;;20.20;99.90;;;;;;5051599;28;20425;-81
2022/06/21 09:23:08;;;;;;;0.10;0.10;;;20.50;99.90;;;;;;5048590;28;20444;-82
2022/06/21 09:26:07;;;;;;;0.10;0.10;;;20.00;99.90;;;;;;5044256;28;20484;-81
2022/06/21 09:28:52;;;;;;;0.10;0.10;;;20.50;99.90;;;;;;5041053;28;20439;-81
2022/06/21 09:31:48;;;;;;;0.10;0.00;;;21.10;99.90;;;;;;5076745;28;20449;-81
2022/06/21 09:34:41;;;;;;;0.10;0.10;;;21.20;99.90;;;;;;5054966;28;21164;-81
2022/06/21 09:37:28;;;;;;;0.10;0.10;;;21.30;99.90;;;;;;5065089;28;20477;-81
2022/06/21 09:40:15;;;;;;;0.10;0.00;;;21.00;99.90;;;;;;5045821;28;20453;-81
2022/06/21 09:43:13;;;;;;;0.10;0.00;;;21.20;99.90;;;;;;5045896;28;20836;-81
2022/06/21 09:45:58;;;;;;;0.10;0.00;;;21.10;99.90;;;;;;5035131;28;20473;-80
2022/06/21 09:48:35;;;;;;;0.10;0.00;;;21.40;99.90;;;;;;5044068;28;20944;-81
2022/06/21 09:51:28;;;;;;;0.10;0.10;;;21.50;99.90;;;;;;5041453;28;20875;-82
2022/06/21 09:54:05;;;;;;;0.10;0.00;;;21.80;99.90;;;;;;5045617;28;20530;-81
2022/06/21 09:56:33;;;;;;;0.10;0.00;;;21.60;99.90;;;;;;5044463;28;20533;-81
2022/06/21 09:59:26;;;;;;;0.10;0.00;;;21.60;99.90;;;;;;5048848;28;20468;-80
2022/06/21 10:01:59;;;;;;;0.10;0.00;;;21.90;99.90;;;;;;5047828;28;20480;-81
2022/06/21 10:04:42;;;;;;;0.10;0.00;;;22.10;99.90;;;;;;5050486;28;20539;-80
2022/06/21 10:07:14;;;;;;;0.10;0.00;;;21.20;99.90;;;;;;5048108;28;20493;-80
2022/06/21 10:10:17;;;;;;;0.10;0.00;;;21.40;99.90;;;;;;5050996;28;20452;-81
2022/06/21 10:12:51;;;;;;;0.10;0.00;;;22.00;99.90;;;;;;5047111;28;20562;-80
2022/06/21 10:15:57;;;;;;;0.10;0.00;;;21.90;99.90;;;;;;5048683;28;20608;-81
2022/06/21 10:18:41;;;;;;;0.10;0.00;;;21.70;99.90;;;;;;5049691;28;20906;-80
2022/06/21 10:21:49;;;;;;;0.10;0.00;;;22.40;99.90;;;;;;5038733;28;20480;-81
2022/06/21 10:24:35;;;;;;;0.10;0.00;;;22.60;99.90;;;;;;5036456;28;20452;-82
2022/06/21 10:27:22;;;;;;;0.10;0.00;;;22.80;99.90;;;;;;5040207;28;20484;-80
2022/06/21 10:30:06;;;;;;;0.10;0.00;;;22.60;99.90;;;;;;5039660;28;20560;-81
2022/06/21 10:33:04;;;;;;;0.10;0.00;;;23.20;99.90;;;;;;5043457;28;20966;-88
2022/06/21 10:35:48;;;;;;;0.10;0.00;;;23.60;99.90;;;;;;5048461;28;20441;-86
2022/06/21 10:38:26;;;;;;;0.10;0.00;;;23.90;99.90;;;;;;5043133;28;20445;-92
2022/06/21 10:41:10;;;;;;;0.10;0.00;;;24.00;99.90;;;;;;5044410;28;20437;-84
2022/06/21 10:43:42;;;;;;;0.10;0.00;;;24.20;99.90;;;;;;5031498;28;20853;-84
2022/06/21 10:46:36;;;;;;;0.10;0.00;;;23.10;99.90;;;;;;5052145;28;20909;-92
2022/06/21 10:49:27;;;;;;;0.10;0.00;;;23.40;99.90;;;;;;5038181;28;20444;-86
2022/06/21 10:52:23;;;;;;;0.10;0.00;;;23.70;99.90;;;;;;5045009;28;20441;-86
2022/06/21 10:55:08;;;;;;;0.10;0.00;;;23.60;99.90;;;;;;5036316;28;20519;-85
2022/06/21 10:57:51;;;;;;;0.10;0.00;;;23.60;99.90;;;;;;5038925;28;20547;-85
2022/06/21 11:03:45;;;;;;;0.10;0.00;;;23.80;99.90;;;;;;5046041;28;20451;-83
2022/06/21 11:06:34;;;;;;;0.10;0.00;;;24.20;99.90;;;;;;5027420;28;20484;-84
2022/06/21 11:09:05;;;;;;;0.10;0.00;;;23.50;99.90;;;;;;5038698;28;20450;-83
2022/06/21 11:12:52;;;;;;;0.10;0.00;;;23.90;99.90;;;;;;5030043;28;20453;-85
2022/06/21 11:15:02;;;;;;;0.10;0.00;;;23.70;99.90;;;;;;5035057;28;21142;-85
2022/06/21 11:17:55;;;;;;;0.10;0.00;;;23.90;99.90;;;;;;5055396;28;20539;-85
2022/06/21 11:20:36;;;;;;;0.10;0.00;;;24.40;99.90;;;;;;5029647;28;20461;-85
2022/06/21 11:23:14;;;;;;;0.10;0.00;;;24.80;99.90;;;;;;5056309;28;20446;-84
2022/06/21 11:26:02;;;;;;;0.10;0.00;;;25.60;99.90;;;;;;5041545;28;20469;-85
2022/06/21 11:28:44;;;;;;;0.10;0.00;;;25.80;99.90;;;;;;5044192;28;20584;-86
2022/06/21 11:31:25;;;;;;;0.10;0.00;;;25.80;99.90;;;;;;5029985;28;20783;-85
2022/06/21 11:34:22;;;;;;;0.10;0.00;;;25.50;99.90;;;;;;5053602;28;20456;-84
2022/06/21 11:37:06;;;;;;;0.10;0.00;;;26.20;99.90;;;;;;5052345;28;20497;-88
2022/06/21 11:40:16;;;;;;;0.10;0.00;;;25.30;99.90;;;;;;5045589;28;20503;-86
2022/06/21 11:42:49;;;;;;;0.10;0.00;;;25.70;99.90;;;;;;5054079;28;20947;-85
2022/06/21 11:45:38;;;;;;;0.10;0.00;;;26.20;99.90;;;;;;5065378;28;20842;-85
2022/06/21 11:48:31;;;;;;;0.10;0.00;;;26.30;99.90;;;;;;5043501;28;20477;-84
2022/06/21 11:51:11;;;;;;;0.10;0.00;;;27.20;99.90;;;;;;5031814;28;20817;-83
2022/06/21 11:54:17;;;;;;;0.10;0.00;;;27.20;99.90;;;;;;5050054;28;20428;-84
2022/06/21 11:57:13;;;;;;;0.10;0.00;;;27.00;99.90;;;;;;5052526;28;20959;-85
2022/06/21 12:00:01;;;;;;;0.10;0.00;;;27.00;99.90;;;;;;5056557;28;20518;-85
2022/06/21 12:02:50;;;;;;;0.10;0.00;;;27.40;99.90;;;;;;5046171;28;20523;-85
2022/06/21 12:05:25;;;;;;;0.10;0.00;;;27.80;99.90;;;;;;5045571;28;20469;-85
2022/06/21 12:08:16;;;;;;;0.10;0.00;;;27.10;99.90;;;;;;5045635;28;20458;-86
2022/06/21 12:10:51;;;;;;;0.10;0.00;;;26.60;99.90;;;;;;5051754;28;20434;-85
2022/06/21 12:13:27;;;;;;;0.10;0.00;;;26.50;99.90;;;;;;5051817;28;20431;-85
2022/06/21 12:16:18;;;;;;;0.10;0.00;;;26.20;99.90;;;;;;5044168;28;20459;-88
2022/06/21 12:18:58;;;;;;;0.10;0.00;;;26.40;99.90;;;;;;5045732;28;20452;-87
2022/06/21 12:21:31;;;;;;;0.10;0.00;;;25.20;99.90;;;;;;5043930;28;20452;-87
2022/06/21 12:24:02;;;;;;;0.10;0.00;;;25.60;99.90;;;;;;5044427;28;20437;-86
2022/06/21 12:26:30;;;;;;;0.10;0.00;;;26.90;99.90;;;;;;5046896;28;20490;-86
2022/06/21 12:28:59;;;;;;;0.10;0.00;;;26.80;99.90;;;;;;5046474;28;21109;-86
2022/06/21 12:31:33;;;;;;;0.10;0.00;;;26.60;99.90;;;;;;5052671;28;20421;-89
2022/06/21 12:34:06;;;;;;;0.10;0.00;;;26.30;99.90;;;;;;5052001;28;20526;-88
2022/06/21 12:36:41;;;;;;;0.10;0.00;;;26.10;99.90;;;;;;5051231;28;20449;-89
2022/06/21 12:39:19;;;;;;;0.10;0.00;;;26.60;99.90;;;;;;5045039;28;20433;-87
2022/06/21 12:42:03;;;;;;;0.10;0.00;;;26.40;99.90;;;;;;5042251;28;20445;-89
2022/06/21 12:44:46;;;;;;;0.10;0.00;;;27.00;99.90;;;;;;5041842;28;20536;-87
2022/06/21 12:47:19;;;;;;;0.10;0.00;;;27.50;99.90;;;;;;5045143;28;20485;-87
2022/06/21 12:50:33;;;;;;;0.10;0.00;;;27.40;99.90;;;;;;5047308;28;20472;-87
2022/06/21 12:53:17;;;;;;;0.10;0.00;;;27.30;99.90;;;;;;5021901;28;21291;-87
2022/06/21 12:55:53;;;;;;;0.10;0.00;;;26.80;99.90;;;;;;5045544;28;20844;-90
2022/06/21 12:58:56;;;;;;;0.10;0.00;;;27.20;99.90;;;;;;5049897;28;20461;-89
2022/06/21 13:01:28;;;;;;;0.10;0.00;;;27.60;99.90;;;;;;5047550;28;20480;-86
2022/06/21 13:04:12;;;;;;;0.10;0.00;;;27.20;99.90;;;;;;5049139;28;20464;-86
2022/06/21 13:07:19;;;;;;;0.10;0.00;;;26.20;99.90;;;;;;5038829;28;20473;-84
2022/06/21 13:10:14;;;;;;;0.10;0.00;;;26.70;99.90;;;;;;5043241;28;20537;-86
2022/06/21 13:13:00;;;;;;;0.10;0.00;;;26.90;99.90;;;;;;5040593;28;20898;-86
2022/06/21 13:15:41;;;;;;;0.10;0.00;;;26.20;99.90;;;;;;5046993;28;20452;-86
2022/06/21 13:18:39;;;;;;;0.10;0.00;;;25.90;99.90;;;;;;5046722;28;20441;-87
2022/06/21 13:21:41;;;;;;;0.10;0.00;;;25.50;99.90;;;;;;5044771;28;20598;-86
2022/06/21 13:24:16;;;;;;;0.10;0.00;;;25.00;99.90;;;;;;5047146;28;20449;-86
2022/06/21 13:27:04;;;;;;;0.10;0.00;;;25.70;99.90;;;;;;5051781;28;20871;-87
2022/06/21 13:30:10;;;;;;;0.10;0.00;;;25.90;99.90;;;;;;5058408;28;20437;-87
2022/06/21 13:32:51;;;;;;;0.10;0.00;;;25.30;99.90;;;;;;5059846;28;20457;-87
2022/06/21 13:35:30;;;;;;;0.10;0.00;;;24.20;99.90;;;;;;5044566;28;20473;-86
2022/06/21 13:38:04;;;;;;;0.10;0.00;;;24.90;99.90;;;;;;5043827;28;20437;-88
2022/06/21 13:40:44;;;;;;;0.10;0.00;;;25.50;99.90;;;;;;5041943;28;20437;-84
2022/06/21 13:43:24;;;;;;;0.10;0.00;;;25.60;99.90;;;;;;5045761;28;20438;-85
2022/06/21 13:46:01;;;;;;;0.10;0.00;;;24.10;99.90;;;;;;5045507;28;20476;-84
2022/06/21 13:48:56;;;;;;;0.10;0.00;;;24.80;99.90;;;;;;5029608;28;20481;-84
2022/06/21 13:51:46;;;;;;;0.10;0.00;;;24.40;99.90;;;;;;5057208;28;20444;-84
2022/06/21 13:54:21;;;;;;;0.10;0.00;;;24.20;99.90;;;;;;5053731;28;20447;-85
2022/06/21 13:57:02;;;;;;;0.10;0.00;;;24.00;99.90;;;;;;5052352;28;20480;-85
2022/06/21 13:59:37;;;;;;;0.10;0.00;;;24.20;99.90;;;;;;5048953;28;20453;-84